sensor_id;sensor_type;location;lat;lon;timestamp;P1;durP1;ratioP1;P2;durP2;ratioP2
66298;SDS011;53098;47.658;8.578;2023-02-15T00:01:30;51.00;;;18.40;;
66298;SDS011;53098;47.658;8.578;2023-02-15T00:03:56;46.03;;;17.83;;
66298;SDS011;53098;47.658;8.578;2023-02-15T00:06:21;33.50;;;17.70;;
66298;SDS011;53098;47.658;8.578;2023-02-15T00:08:46;35.13;;;16.70;;
66298;SDS011;53098;47.658;8.578;2023-02-15T00:11:13;34.60;;;17.20;;
66298;SDS011;53098;47.658;8.578;2023-02-15T00:13:38;32.92;;;16.63;;
66298;SDS011;53098;47.658;8.578;2023-02-15T00:16:08;56.17;;;19.37;;
66298;SDS011;53098;47.658;8.578;2023-02-15T00:18:33;62.65;;;17.52;;
66298;SDS011;53098;47.658;8.578;2023-02-15T00:21:02;37.58;;;17.45;;
66298;SDS011;53098;47.658;8.578;2023-02-15T00:23:27;34.05;;;16.17;;
66298;SDS011;53098;47.658;8.578;2023-02-15T00:26:02;34.60;;;18.07;;
66298;SDS011;53098;47.658;8.578;2023-02-15T00:28:27;33.20;;;16.40;;
66298;SDS011;53098;47.658;8.578;2023-02-15T00:30:52;48.07;;;18.03;;
66298;SDS011;53098;47.658;8.578;2023-02-15T00:33:18;80.57;;;17.47;;
66298;SDS011;53098;47.658;8.578;2023-02-15T00:35:43;78.53;;;19.17;;
66298;SDS011;53098;47.658;8.578;2023-02-15T00:38:08;93.93;;;18.60;;
66298;SDS011;53098;47.658;8.578;2023-02-15T00:40:33;47.37;;;17.97;;
66298;SDS011;53098;47.658;8.578;2023-02-15T00:42:59;97.47;;;17.27;;
66298;SDS011;53098;47.658;8.578;2023-02-15T00:45:24;47.63;;;17.73;;
66298;SDS011;53098;47.658;8.578;2023-02-15T00:47:49;62.27;;;17.37;;
66298;SDS011;53098;47.658;8.578;2023-02-15T00:50:14;41.93;;;18.17;;
66298;SDS011;53098;47.658;8.578;2023-02-15T00:52:40;45.58;;;16.40;;
66298;SDS011;53098;47.658;8.578;2023-02-15T00:55:05;127.17;;;19.17;;
66298;SDS011;53098;47.658;8.578;2023-02-15T00:57:30;150.38;;;18.10;;
66298;SDS011;53098;47.658;8.578;2023-02-15T00:59:56;39.93;;;16.93;;
66298;SDS011;53098;47.658;8.578;2023-02-15T01:02:21;300.37;;;19.43;;
66298;SDS011;53098;47.658;8.578;2023-02-15T01:04:46;129.23;;;18.17;;
66298;SDS011;53098;47.658;8.578;2023-02-15T01:07:12;43.63;;;16.73;;
66298;SDS011;53098;47.658;8.578;2023-02-15T01:09:37;61.23;;;17.97;;
66298;SDS011;53098;47.658;8.578;2023-02-15T01:12:02;58.67;;;18.57;;
66298;SDS011;53098;47.658;8.578;2023-02-15T01:14:27;32.40;;;15.90;;
66298;SDS011;53098;47.658;8.578;2023-02-15T01:16:53;48.37;;;17.80;;
66298;SDS011;53098;47.658;8.578;2023-02-15T01:19:18;41.20;;;16.20;;
66298;SDS011;53098;47.658;8.578;2023-02-15T01:21:43;44.78;;;17.55;;
66298;SDS011;53098;47.658;8.578;2023-02-15T01:24:14;37.97;;;17.33;;
66298;SDS011;53098;47.658;8.578;2023-02-15T01:26:40;62.80;;;17.67;;
66298;SDS011;53098;47.658;8.578;2023-02-15T01:29:05;79.23;;;16.83;;
66298;SDS011;53098;47.658;8.578;2023-02-15T01:31:30;104.37;;;17.37;;
66298;SDS011;53098;47.658;8.578;2023-02-15T01:33:56;146.20;;;18.93;;
66298;SDS011;53098;47.658;8.578;2023-02-15T01:36:21;46.73;;;16.40;;
66298;SDS011;53098;47.658;8.578;2023-02-15T01:38:46;62.63;;;17.50;;
66298;SDS011;53098;47.658;8.578;2023-02-15T01:41:11;101.55;;;17.17;;
66298;SDS011;53098;47.658;8.578;2023-02-15T01:43:43;40.53;;;17.38;;
66298;SDS011;53098;47.658;8.578;2023-02-15T01:46:09;106.13;;;17.13;;
66298;SDS011;53098;47.658;8.578;2023-02-15T01:48:36;35.15;;;16.40;;
66298;SDS011;53098;47.658;8.578;2023-02-15T01:51:06;99.78;;;16.55;;
66298;SDS011;53098;47.658;8.578;2023-02-15T01:53:35;33.85;;;17.02;;
66298;SDS011;53098;47.658;8.578;2023-02-15T01:56:20;40.15;;;15.35;;
66298;SDS011;53098;47.658;8.578;2023-02-15T01:58:46;111.45;;;16.65;;
66298;SDS011;53098;47.658;8.578;2023-02-15T02:01:12;103.13;;;17.55;;
66298;SDS011;53098;47.658;8.578;2023-02-15T02:03:43;55.85;;;16.70;;
66298;SDS011;53098;47.658;8.578;2023-02-15T02:06:13;43.45;;;15.63;;
66298;SDS011;53098;47.658;8.578;2023-02-15T02:08:38;47.47;;;16.10;;
66298;SDS011;53098;47.658;8.578;2023-02-15T02:11:09;171.15;;;18.60;;
66298;SDS011;53098;47.658;8.578;2023-02-15T02:13:34;102.65;;;16.58;;
66298;SDS011;53098;47.658;8.578;2023-02-15T02:16:08;95.63;;;16.23;;
66298;SDS011;53098;47.658;8.578;2023-02-15T02:23:49;116.90;;;16.35;;
66298;SDS011;53098;47.658;8.578;2023-02-15T02:26:21;39.63;;;15.88;;
66298;SDS011;53098;47.658;8.578;2023-02-15T02:44:29;39.83;;;14.75;;
66298;SDS011;53098;47.658;8.578;2023-02-15T02:49:31;69.55;;;16.70;;
66298;SDS011;53098;47.658;8.578;2023-02-15T02:51:58;47.30;;;14.70;;
66298;SDS011;53098;47.658;8.578;2023-02-15T02:54:24;79.63;;;15.52;;
66298;SDS011;53098;47.658;8.578;2023-02-15T02:56:49;34.83;;;13.15;;
66298;SDS011;53098;47.658;8.578;2023-02-15T02:59:38;129.20;;;15.30;;
66298;SDS011;53098;47.658;8.578;2023-02-15T03:02:04;145.27;;;16.13;;
66298;SDS011;53098;47.658;8.578;2023-02-15T03:04:31;57.70;;;15.25;;
66298;SDS011;53098;47.658;8.578;2023-02-15T03:06:58;140.02;;;15.48;;
66298;SDS011;53098;47.658;8.578;2023-02-15T03:11:50;132.20;;;15.53;;
66298;SDS011;53098;47.658;8.578;2023-02-15T03:14:16;99.53;;;15.88;;
66298;SDS011;53098;47.658;8.578;2023-02-15T03:16:43;77.63;;;14.93;;
66298;SDS011;53098;47.658;8.578;2023-02-15T03:19:17;59.97;;;14.07;;
66298;SDS011;53098;47.658;8.578;2023-02-15T03:21:51;133.93;;;15.77;;
66298;SDS011;53098;47.658;8.578;2023-02-15T03:24:18;78.03;;;14.02;;
66298;SDS011;53098;47.658;8.578;2023-02-15T03:26:45;70.90;;;13.95;;
66298;SDS011;53098;47.658;8.578;2023-02-15T03:29:10;113.82;;;13.35;;
66298;SDS011;53098;47.658;8.578;2023-02-15T03:31:38;111.93;;;15.02;;
66298;SDS011;53098;47.658;8.578;2023-02-15T03:34:04;27.83;;;13.35;;
66298;SDS011;53098;47.658;8.578;2023-02-15T03:39:00;81.40;;;14.27;;
66298;SDS011;53098;47.658;8.578;2023-02-15T03:41:27;61.03;;;12.60;;
66298;SDS011;53098;47.658;8.578;2023-02-15T03:43:56;26.80;;;12.48;;
66298;SDS011;53098;47.658;8.578;2023-02-15T03:48:53;30.35;;;12.82;;
66298;SDS011;53098;47.658;8.578;2023-02-15T03:51:20;33.47;;;12.75;;
66298;SDS011;53098;47.658;8.578;2023-02-15T03:53:47;71.82;;;14.00;;
66298;SDS011;53098;47.658;8.578;2023-02-15T03:56:13;46.78;;;13.70;;
66298;SDS011;53098;47.658;8.578;2023-02-15T03:58:38;25.33;;;12.50;;
66298;SDS011;53098;47.658;8.578;2023-02-15T04:01:05;110.03;;;14.27;;
66298;SDS011;53098;47.658;8.578;2023-02-15T04:03:41;40.03;;;12.38;;
66298;SDS011;53098;47.658;8.578;2023-02-15T04:06:08;35.65;;;13.00;;
66298;SDS011;53098;47.658;8.578;2023-02-15T04:08:33;26.70;;;12.70;;
66298;SDS011;53098;47.658;8.578;2023-02-15T04:10:58;48.03;;;12.70;;
66298;SDS011;53098;47.658;8.578;2023-02-15T04:13:29;23.30;;;12.17;;
66298;SDS011;53098;47.658;8.578;2023-02-15T04:15:54;51.35;;;12.45;;
66298;SDS011;53098;47.658;8.578;2023-02-15T04:18:20;60.83;;;12.33;;
66298;SDS011;53098;47.658;8.578;2023-02-15T04:20:45;25.73;;;12.20;;
66298;SDS011;53098;47.658;8.578;2023-02-15T04:23:10;23.20;;;12.85;;
66298;SDS011;53098;47.658;8.578;2023-02-15T04:25:36;24.13;;;12.37;;
66298;SDS011;53098;47.658;8.578;2023-02-15T04:28:01;22.10;;;11.70;;
66298;SDS011;53098;47.658;8.578;2023-02-15T04:30:26;23.00;;;11.40;;
66298;SDS011;53098;47.658;8.578;2023-02-15T04:32:52;24.23;;;11.23;;
66298;SDS011;53098;47.658;8.578;2023-02-15T04:35:18;26.02;;;12.23;;
66298;SDS011;53098;47.658;8.578;2023-02-15T04:37:43;21.47;;;12.17;;
66298;SDS011;53098;47.658;8.578;2023-02-15T04:40:10;23.98;;;11.50;;
66298;SDS011;53098;47.658;8.578;2023-02-15T04:42:35;33.95;;;13.18;;
66298;SDS011;53098;47.658;8.578;2023-02-15T04:45:01;29.73;;;11.33;;
66298;SDS011;53098;47.658;8.578;2023-02-15T04:47:26;73.60;;;13.40;;
66298;SDS011;53098;47.658;8.578;2023-02-15T04:49:51;46.20;;;12.80;;
66298;SDS011;53098;47.658;8.578;2023-02-15T04:52:16;45.67;;;12.47;;
66298;SDS011;53098;47.658;8.578;2023-02-15T04:54:42;27.10;;;12.43;;
66298;SDS011;53098;47.658;8.578;2023-02-15T04:57:07;79.80;;;12.63;;
66298;SDS011;53098;47.658;8.578;2023-02-15T04:59:32;175.20;;;13.13;;
66298;SDS011;53098;47.658;8.578;2023-02-15T05:01:58;22.43;;;12.70;;
66298;SDS011;53098;47.658;8.578;2023-02-15T05:04:23;21.92;;;11.95;;
66298;SDS011;53098;47.658;8.578;2023-02-15T05:06:48;42.60;;;12.23;;
66298;SDS011;53098;47.658;8.578;2023-02-15T05:09:14;74.18;;;12.15;;
66298;SDS011;53098;47.658;8.578;2023-02-15T05:11:39;32.00;;;12.48;;
66298;SDS011;53098;47.658;8.578;2023-02-15T05:14:04;46.90;;;12.40;;
66298;SDS011;53098;47.658;8.578;2023-02-15T05:16:30;25.73;;;11.77;;
66298;SDS011;53098;47.658;8.578;2023-02-15T05:18:55;59.17;;;12.27;;
66298;SDS011;53098;47.658;8.578;2023-02-15T05:21:20;74.67;;;13.87;;
66298;SDS011;53098;47.658;8.578;2023-02-15T05:23:46;62.08;;;13.52;;
66298;SDS011;53098;47.658;8.578;2023-02-15T05:26:12;83.20;;;13.17;;
66298;SDS011;53098;47.658;8.578;2023-02-15T05:28:37;31.55;;;12.48;;
66298;SDS011;53098;47.658;8.578;2023-02-15T05:33:34;52.90;;;13.27;;
66298;SDS011;53098;47.658;8.578;2023-02-15T05:36:00;30.67;;;12.60;;
66298;SDS011;53098;47.658;8.578;2023-02-15T05:38:25;131.10;;;13.88;;
66298;SDS011;53098;47.658;8.578;2023-02-15T05:40:51;29.13;;;12.77;;
66298;SDS011;53098;47.658;8.578;2023-02-15T05:43:16;31.17;;;13.43;;
66298;SDS011;53098;47.658;8.578;2023-02-15T05:45:52;49.63;;;12.37;;
66298;SDS011;53098;47.658;8.578;2023-02-15T05:48:18;111.60;;;14.60;;
66298;SDS011;53098;47.658;8.578;2023-02-15T05:50:44;24.85;;;12.55;;
66298;SDS011;53098;47.658;8.578;2023-02-15T05:53:09;51.38;;;12.43;;
66298;SDS011;53098;47.658;8.578;2023-02-15T05:55:37;33.72;;;12.60;;
66298;SDS011;53098;47.658;8.578;2023-02-15T05:58:03;28.60;;;12.43;;
66298;SDS011;53098;47.658;8.578;2023-02-15T06:00:28;36.97;;;13.40;;
66298;SDS011;53098;47.658;8.578;2023-02-15T06:02:53;48.23;;;13.13;;
66298;SDS011;53098;47.658;8.578;2023-02-15T06:05:18;80.93;;;13.67;;
66298;SDS011;53098;47.658;8.578;2023-02-15T06:07:44;129.50;;;15.17;;
66298;SDS011;53098;47.658;8.578;2023-02-15T06:10:09;91.00;;;14.02;;
66298;SDS011;53098;47.658;8.578;2023-02-15T06:12:34;84.77;;;14.23;;
66298;SDS011;53098;47.658;8.578;2023-02-15T06:14:59;22.33;;;12.30;;
66298;SDS011;53098;47.658;8.578;2023-02-15T06:17:25;38.73;;;13.63;;
66298;SDS011;53098;47.658;8.578;2023-02-15T06:19:50;28.50;;;12.30;;
66298;SDS011;53098;47.658;8.578;2023-02-15T06:22:15;41.53;;;12.40;;
66298;SDS011;53098;47.658;8.578;2023-02-15T06:24:40;35.50;;;13.27;;
66298;SDS011;53098;47.658;8.578;2023-02-15T06:27:06;26.13;;;12.97;;
66298;SDS011;53098;47.658;8.578;2023-02-15T06:29:31;22.30;;;12.57;;
66298;SDS011;53098;47.658;8.578;2023-02-15T06:31:56;27.80;;;12.43;;
66298;SDS011;53098;47.658;8.578;2023-02-15T06:34:21;24.00;;;13.33;;
66298;SDS011;53098;47.658;8.578;2023-02-15T06:36:47;30.20;;;13.30;;
66298;SDS011;53098;47.658;8.578;2023-02-15T06:39:12;47.27;;;13.87;;
66298;SDS011;53098;47.658;8.578;2023-02-15T06:41:37;76.80;;;14.90;;
66298;SDS011;53098;47.658;8.578;2023-02-15T06:44:03;29.92;;;13.32;;
66298;SDS011;53098;47.658;8.578;2023-02-15T06:46:29;48.42;;;13.77;;
66298;SDS011;53098;47.658;8.578;2023-02-15T06:48:54;40.77;;;13.90;;
66298;SDS011;53098;47.658;8.578;2023-02-15T06:51:19;69.00;;;14.97;;
66298;SDS011;53098;47.658;8.578;2023-02-15T06:53:45;44.13;;;14.20;;
66298;SDS011;53098;47.658;8.578;2023-02-15T06:56:10;75.27;;;14.53;;
66298;SDS011;53098;47.658;8.578;2023-02-15T06:58:36;54.80;;;15.25;;
66298;SDS011;53098;47.658;8.578;2023-02-15T07:01:02;81.40;;;15.25;;
66298;SDS011;53098;47.658;8.578;2023-02-15T07:03:27;34.10;;;13.40;;
66298;SDS011;53098;47.658;8.578;2023-02-15T07:05:59;50.00;;;13.80;;
66298;SDS011;53098;47.658;8.578;2023-02-15T07:08:25;40.47;;;12.93;;
66298;SDS011;53098;47.658;8.578;2023-02-15T07:10:51;95.60;;;14.43;;
66298;SDS011;53098;47.658;8.578;2023-02-15T07:13:16;88.70;;;14.13;;
66298;SDS011;53098;47.658;8.578;2023-02-15T07:15:41;26.60;;;12.93;;
66298;SDS011;53098;47.658;8.578;2023-02-15T07:18:06;55.63;;;13.37;;
66298;SDS011;53098;47.658;8.578;2023-02-15T07:20:32;24.70;;;13.33;;
66298;SDS011;53098;47.658;8.578;2023-02-15T07:22:57;26.73;;;12.75;;
66298;SDS011;53098;47.658;8.578;2023-02-15T07:25:22;23.70;;;12.57;;
66298;SDS011;53098;47.658;8.578;2023-02-15T07:27:48;23.40;;;11.87;;
66298;SDS011;53098;47.658;8.578;2023-02-15T07:30:14;20.97;;;11.73;;
66298;SDS011;53098;47.658;8.578;2023-02-15T07:32:40;43.03;;;13.45;;
66298;SDS011;53098;47.658;8.578;2023-02-15T07:35:05;109.40;;;16.03;;
66298;SDS011;53098;47.658;8.578;2023-02-15T07:37:31;27.63;;;12.87;;
66298;SDS011;53098;47.658;8.578;2023-02-15T07:39:56;33.37;;;14.53;;
66298;SDS011;53098;47.658;8.578;2023-02-15T07:42:21;56.47;;;14.63;;
66298;SDS011;53098;47.658;8.578;2023-02-15T07:44:46;44.07;;;13.80;;
66298;SDS011;53098;47.658;8.578;2023-02-15T07:47:12;26.83;;;14.67;;
66298;SDS011;53098;47.658;8.578;2023-02-15T07:49:37;57.17;;;12.73;;
66298;SDS011;53098;47.658;8.578;2023-02-15T07:52:02;48.58;;;13.48;;
66298;SDS011;53098;47.658;8.578;2023-02-15T07:54:28;64.90;;;14.07;;
66298;SDS011;53098;47.658;8.578;2023-02-15T07:56:53;38.73;;;13.90;;
66298;SDS011;53098;47.658;8.578;2023-02-15T07:59:18;59.23;;;14.33;;
66298;SDS011;53098;47.658;8.578;2023-02-15T08:01:43;35.83;;;14.60;;
66298;SDS011;53098;47.658;8.578;2023-02-15T08:04:09;22.70;;;12.17;;
66298;SDS011;53098;47.658;8.578;2023-02-15T08:06:35;57.70;;;15.27;;
66298;SDS011;53098;47.658;8.578;2023-02-15T08:09:02;98.43;;;15.48;;
66298;SDS011;53098;47.658;8.578;2023-02-15T08:11:32;25.83;;;14.23;;
66298;SDS011;53098;47.658;8.578;2023-02-15T08:16:26;24.53;;;12.80;;
66298;SDS011;53098;47.658;8.578;2023-02-15T08:18:52;26.55;;;13.23;;
66298;SDS011;53098;47.658;8.578;2023-02-15T08:21:18;22.58;;;12.35;;
66298;SDS011;53098;47.658;8.578;2023-02-15T08:23:43;25.25;;;13.52;;
66298;SDS011;53098;47.658;8.578;2023-02-15T08:26:09;23.50;;;13.03;;
66298;SDS011;53098;47.658;8.578;2023-02-15T08:28:34;27.30;;;12.25;;
66298;SDS011;53098;47.658;8.578;2023-02-15T08:31:06;26.00;;;13.47;;
66298;SDS011;53098;47.658;8.578;2023-02-15T08:33:32;24.50;;;12.60;;
66298;SDS011;53098;47.658;8.578;2023-02-15T08:36:01;26.38;;;13.73;;
66298;SDS011;53098;47.658;8.578;2023-02-15T08:38:27;22.77;;;12.82;;
66298;SDS011;53098;47.658;8.578;2023-02-15T08:40:52;25.37;;;14.13;;
66298;SDS011;53098;47.658;8.578;2023-02-15T08:43:17;28.73;;;12.73;;
66298;SDS011;53098;47.658;8.578;2023-02-15T08:45:42;24.33;;;13.10;;
66298;SDS011;53098;47.658;8.578;2023-02-15T08:48:07;25.17;;;12.03;;
66298;SDS011;53098;47.658;8.578;2023-02-15T08:50:33;22.83;;;13.70;;
66298;SDS011;53098;47.658;8.578;2023-02-15T08:52:58;38.97;;;14.00;;
66298;SDS011;53098;47.658;8.578;2023-02-15T08:55:23;25.60;;;13.50;;
66298;SDS011;53098;47.658;8.578;2023-02-15T08:57:49;55.63;;;14.67;;
66298;SDS011;53098;47.658;8.578;2023-02-15T09:00:14;34.00;;;14.63;;
66298;SDS011;53098;47.658;8.578;2023-02-15T09:02:39;27.98;;;14.05;;
66298;SDS011;53098;47.658;8.578;2023-02-15T09:05:05;25.80;;;12.90;;
66298;SDS011;53098;47.658;8.578;2023-02-15T09:07:30;33.75;;;14.70;;
66298;SDS011;53098;47.658;8.578;2023-02-15T09:09:56;65.20;;;14.07;;
66298;SDS011;53098;47.658;8.578;2023-02-15T09:12:21;39.40;;;14.00;;
66298;SDS011;53098;47.658;8.578;2023-02-15T09:14:46;67.70;;;14.43;;
66298;SDS011;53098;47.658;8.578;2023-02-15T09:17:11;27.90;;;14.27;;
66298;SDS011;53098;47.658;8.578;2023-02-15T09:19:37;43.20;;;14.57;;
66298;SDS011;53098;47.658;8.578;2023-02-15T09:22:02;185.60;;;16.90;;
66298;SDS011;53098;47.658;8.578;2023-02-15T09:24:27;27.97;;;14.70;;
66298;SDS011;53098;47.658;8.578;2023-02-15T09:26:56;30.48;;;14.48;;
66298;SDS011;53098;47.658;8.578;2023-02-15T09:29:21;45.30;;;14.13;;
66298;SDS011;53098;47.658;8.578;2023-02-15T09:31:48;69.77;;;15.90;;
66298;SDS011;53098;47.658;8.578;2023-02-15T09:34:14;32.53;;;14.68;;
66298;SDS011;53098;47.658;8.578;2023-02-15T09:36:39;129.00;;;14.68;;
66298;SDS011;53098;47.658;8.578;2023-02-15T09:49:01;26.87;;;14.60;;
66298;SDS011;53098;47.658;8.578;2023-02-15T09:51:42;36.25;;;13.85;;
66298;SDS011;53098;47.658;8.578;2023-02-15T09:56:55;57.33;;;15.05;;
66298;SDS011;53098;47.658;8.578;2023-02-15T10:07:09;26.25;;;14.90;;
66298;SDS011;53098;47.658;8.578;2023-02-15T10:12:11;27.80;;;14.93;;
66298;SDS011;53098;47.658;8.578;2023-02-15T10:22:46;27.23;;;14.50;;
66298;SDS011;53098;47.658;8.578;2023-02-15T10:27:47;42.75;;;14.73;;
66298;SDS011;53098;47.658;8.578;2023-02-15T10:30:14;36.55;;;15.15;;
66298;SDS011;53098;47.658;8.578;2023-02-15T10:45:31;25.15;;;14.23;;
66298;SDS011;53098;47.658;8.578;2023-02-15T10:55:18;29.97;;;15.33;;
66298;SDS011;53098;47.658;8.578;2023-02-15T11:00:35;116.57;;;16.08;;
66298;SDS011;53098;47.658;8.578;2023-02-15T11:06:21;32.20;;;15.15;;
66298;SDS011;53098;47.658;8.578;2023-02-15T11:08:28;30.70;;;15.85;;
66298;SDS011;53098;47.658;8.578;2023-02-15T11:10:55;52.67;;;15.52;;
66298;SDS011;53098;47.658;8.578;2023-02-15T11:13:23;58.60;;;15.90;;
66298;SDS011;53098;47.658;8.578;2023-02-15T11:18:25;32.13;;;16.13;;
66298;SDS011;53098;47.658;8.578;2023-02-15T11:20:55;60.88;;;16.48;;
66298;SDS011;53098;47.658;8.578;2023-02-15T11:23:22;37.60;;;15.00;;
66298;SDS011;53098;47.658;8.578;2023-02-15T11:25:54;31.90;;;15.93;;
66298;SDS011;53098;47.658;8.578;2023-02-15T11:28:30;30.92;;;15.63;;
66298;SDS011;53098;47.658;8.578;2023-02-15T11:30:56;37.13;;;15.63;;
66298;SDS011;53098;47.658;8.578;2023-02-15T11:33:29;34.05;;;16.42;;
66298;SDS011;53098;47.658;8.578;2023-02-15T11:36:00;30.27;;;16.27;;
66298;SDS011;53098;47.658;8.578;2023-02-15T11:38:29;53.53;;;17.13;;
66298;SDS011;53098;47.658;8.578;2023-02-15T11:41:07;29.13;;;16.27;;
66298;SDS011;53098;47.658;8.578;2023-02-15T11:43:38;32.38;;;16.90;;
66298;SDS011;53098;47.658;8.578;2023-02-15T11:46:05;32.85;;;16.65;;
66298;SDS011;53098;47.658;8.578;2023-02-15T11:48:31;33.42;;;18.08;;
66298;SDS011;53098;47.658;8.578;2023-02-15T11:50:56;31.20;;;16.20;;
66298;SDS011;53098;47.658;8.578;2023-02-15T11:53:22;30.80;;;16.10;;
66298;SDS011;53098;47.658;8.578;2023-02-15T11:55:48;27.15;;;14.93;;
66298;SDS011;53098;47.658;8.578;2023-02-15T12:00:45;32.28;;;17.00;;
66298;SDS011;53098;47.658;8.578;2023-02-15T12:03:14;28.70;;;15.80;;
66298;SDS011;53098;47.658;8.578;2023-02-15T12:05:42;22.98;;;13.77;;
66298;SDS011;53098;47.658;8.578;2023-02-15T12:08:16;25.83;;;14.82;;
66298;SDS011;53098;47.658;8.578;2023-02-15T12:10:58;27.08;;;14.07;;
66298;SDS011;53098;47.658;8.578;2023-02-15T12:13:25;26.60;;;15.68;;
66298;SDS011;53098;47.658;8.578;2023-02-15T12:15:52;31.77;;;15.97;;
66298;SDS011;53098;47.658;8.578;2023-02-15T12:20:46;31.30;;;17.67;;
66298;SDS011;53098;47.658;8.578;2023-02-15T12:23:12;32.95;;;18.17;;
66298;SDS011;53098;47.658;8.578;2023-02-15T12:28:19;30.30;;;16.80;;
66298;SDS011;53098;47.658;8.578;2023-02-15T12:30:46;31.17;;;17.05;;
66298;SDS011;53098;47.658;8.578;2023-02-15T12:35:46;32.05;;;17.13;;
66298;SDS011;53098;47.658;8.578;2023-02-15T12:40:37;31.53;;;17.33;;
66298;SDS011;53098;47.658;8.578;2023-02-15T12:43:02;32.38;;;17.63;;
66298;SDS011;53098;47.658;8.578;2023-02-15T12:45:28;31.67;;;17.45;;
66298;SDS011;53098;47.658;8.578;2023-02-15T12:50:40;33.58;;;18.38;;
66298;SDS011;53098;47.658;8.578;2023-02-15T12:53:07;32.70;;;18.33;;
66298;SDS011;53098;47.658;8.578;2023-02-15T12:55:32;30.52;;;17.92;;
66298;SDS011;53098;47.658;8.578;2023-02-15T12:58:32;46.90;;;19.00;;
66298;SDS011;53098;47.658;8.578;2023-02-15T13:01:02;34.38;;;18.42;;
66298;SDS011;53098;47.658;8.578;2023-02-15T13:03:27;32.58;;;18.08;;
66298;SDS011;53098;47.658;8.578;2023-02-15T13:05:53;31.13;;;16.95;;
66298;SDS011;53098;47.658;8.578;2023-02-15T13:08:20;32.60;;;18.27;;
66298;SDS011;53098;47.658;8.578;2023-02-15T13:10:56;31.88;;;18.23;;
66298;SDS011;53098;47.658;8.578;2023-02-15T13:13:23;31.27;;;17.60;;
66298;SDS011;53098;47.658;8.578;2023-02-15T13:15:53;31.33;;;17.35;;
66298;SDS011;53098;47.658;8.578;2023-02-15T13:18:25;32.85;;;18.58;;
66298;SDS011;53098;47.658;8.578;2023-02-15T13:20:52;28.52;;;16.23;;
66298;SDS011;53098;47.658;8.578;2023-02-15T13:23:21;29.98;;;17.23;;
66298;SDS011;53098;47.658;8.578;2023-02-15T13:25:48;31.25;;;18.83;;
66298;SDS011;53098;47.658;8.578;2023-02-15T13:28:14;34.45;;;18.20;;
66298;SDS011;53098;47.658;8.578;2023-02-15T13:30:45;30.85;;;17.05;;
66298;SDS011;53098;47.658;8.578;2023-02-15T13:33:16;31.05;;;18.70;;
66298;SDS011;53098;47.658;8.578;2023-02-15T13:38:14;30.40;;;16.52;;
66298;SDS011;53098;47.658;8.578;2023-02-15T13:40:53;32.88;;;17.75;;
66298;SDS011;53098;47.658;8.578;2023-02-15T13:43:41;34.00;;;17.92;;
66298;SDS011;53098;47.658;8.578;2023-02-15T13:48:44;31.17;;;18.63;;
66298;SDS011;53098;47.658;8.578;2023-02-15T13:57:04;30.83;;;17.25;;
66298;SDS011;53098;47.658;8.578;2023-02-15T14:17:02;29.23;;;16.20;;
66298;SDS011;53098;47.658;8.578;2023-02-15T14:19:46;28.48;;;17.08;;
66298;SDS011;53098;47.658;8.578;2023-02-15T14:22:18;27.80;;;16.67;;
66298;SDS011;53098;47.658;8.578;2023-02-15T14:24:47;29.25;;;17.33;;
66298;SDS011;53098;47.658;8.578;2023-02-15T14:27:33;27.02;;;16.25;;
66298;SDS011;53098;47.658;8.578;2023-02-15T14:30:15;27.15;;;16.02;;
66298;SDS011;53098;47.658;8.578;2023-02-15T14:32:42;27.42;;;17.13;;
66298;SDS011;53098;47.658;8.578;2023-02-15T14:35:13;28.42;;;15.95;;
66298;SDS011;53098;47.658;8.578;2023-02-15T14:43:11;25.77;;;15.23;;
66298;SDS011;53098;47.658;8.578;2023-02-15T14:48:38;24.70;;;15.93;;
66298;SDS011;53098;47.658;8.578;2023-02-15T14:51:04;25.02;;;15.48;;
66298;SDS011;53098;47.658;8.578;2023-02-15T14:58:38;25.45;;;16.05;;
66298;SDS011;53098;47.658;8.578;2023-02-15T15:01:29;26.67;;;16.73;;
66298;SDS011;53098;47.658;8.578;2023-02-15T15:03:57;25.70;;;16.25;;
66298;SDS011;53098;47.658;8.578;2023-02-15T15:06:24;26.33;;;16.25;;
66298;SDS011;53098;47.658;8.578;2023-02-15T15:08:51;28.85;;;16.80;;
66298;SDS011;53098;47.658;8.578;2023-02-15T15:14:00;27.23;;;16.45;;
66298;SDS011;53098;47.658;8.578;2023-02-15T15:18:54;29.08;;;17.90;;
66298;SDS011;53098;47.658;8.578;2023-02-15T15:24:05;23.80;;;15.23;;
66298;SDS011;53098;47.658;8.578;2023-02-15T15:26:31;27.02;;;15.13;;
66298;SDS011;53098;47.658;8.578;2023-02-15T15:28:58;25.73;;;15.85;;
66298;SDS011;53098;47.658;8.578;2023-02-15T15:31:25;24.20;;;15.52;;
66298;SDS011;53098;47.658;8.578;2023-02-15T15:36:24;23.90;;;15.43;;
66298;SDS011;53098;47.658;8.578;2023-02-15T15:38:55;26.80;;;15.95;;
66298;SDS011;53098;47.658;8.578;2023-02-15T15:49:10;24.42;;;15.88;;
66298;SDS011;53098;47.658;8.578;2023-02-15T15:51:39;25.85;;;15.50;;
66298;SDS011;53098;47.658;8.578;2023-02-15T15:54:04;25.75;;;16.25;;
66298;SDS011;53098;47.658;8.578;2023-02-15T15:56:36;24.33;;;15.50;;
66298;SDS011;53098;47.658;8.578;2023-02-15T15:59:02;23.25;;;14.88;;
66298;SDS011;53098;47.658;8.578;2023-02-15T16:01:31;27.50;;;15.80;;
66298;SDS011;53098;47.658;8.578;2023-02-15T16:03:59;25.15;;;16.60;;
66298;SDS011;53098;47.658;8.578;2023-02-15T16:08:53;28.45;;;15.88;;
66298;SDS011;53098;47.658;8.578;2023-02-15T16:11:25;23.90;;;14.50;;
66298;SDS011;53098;47.658;8.578;2023-02-15T16:13:51;30.33;;;18.30;;
66298;SDS011;53098;47.658;8.578;2023-02-15T16:16:20;33.30;;;19.35;;
66298;SDS011;53098;47.658;8.578;2023-02-15T16:18:46;31.27;;;18.98;;
66298;SDS011;53098;47.658;8.578;2023-02-15T16:21:19;28.92;;;16.55;;
66298;SDS011;53098;47.658;8.578;2023-02-15T16:28:56;29.83;;;18.00;;
66298;SDS011;53098;47.658;8.578;2023-02-15T16:31:23;29.23;;;17.90;;
66298;SDS011;53098;47.658;8.578;2023-02-15T16:33:51;26.97;;;15.67;;
66298;SDS011;53098;47.658;8.578;2023-02-15T16:36:27;28.45;;;16.75;;
66298;SDS011;53098;47.658;8.578;2023-02-15T16:41:22;28.90;;;16.17;;
66298;SDS011;53098;47.658;8.578;2023-02-15T16:43:48;27.25;;;17.08;;
66298;SDS011;53098;47.658;8.578;2023-02-15T16:46:25;28.63;;;17.30;;
66298;SDS011;53098;47.658;8.578;2023-02-15T16:48:52;30.85;;;18.23;;
66298;SDS011;53098;47.658;8.578;2023-02-15T16:51:18;31.95;;;19.90;;
66298;SDS011;53098;47.658;8.578;2023-02-15T16:53:46;28.90;;;16.90;;
66298;SDS011;53098;47.658;8.578;2023-02-15T16:56:11;27.95;;;18.02;;
66298;SDS011;53098;47.658;8.578;2023-02-15T16:58:41;28.58;;;17.23;;
66298;SDS011;53098;47.658;8.578;2023-02-15T17:01:08;28.60;;;17.63;;
66298;SDS011;53098;47.658;8.578;2023-02-15T17:03:35;31.42;;;18.48;;
66298;SDS011;53098;47.658;8.578;2023-02-15T17:06:01;32.25;;;19.58;;
66298;SDS011;53098;47.658;8.578;2023-02-15T17:08:31;29.95;;;18.65;;
66298;SDS011;53098;47.658;8.578;2023-02-15T17:11:11;29.25;;;17.48;;
66298;SDS011;53098;47.658;8.578;2023-02-15T17:13:37;29.17;;;17.90;;
66298;SDS011;53098;47.658;8.578;2023-02-15T17:18:29;28.10;;;17.27;;
66298;SDS011;53098;47.658;8.578;2023-02-15T17:20:56;31.15;;;17.05;;
66298;SDS011;53098;47.658;8.578;2023-02-15T17:23:28;30.77;;;17.75;;
66298;SDS011;53098;47.658;8.578;2023-02-15T17:25:54;32.17;;;18.55;;
66298;SDS011;53098;47.658;8.578;2023-02-15T17:28:29;31.48;;;17.83;;